Airfield :
LOGIN :

Register | Disclaimer

   EN    FR    IT 

 










Legend :    VFR   Marginal VFR   IFR   Intensive IFR   Very Intensive IFR
Visi :
Ceiling :
>= 8 km
>= 3000ft
5 to 8 km
1000 to 3000 ft
1500m to 5 km
500 to 1000 ft
800 to 1500m
200 to 500 ft
< 800m
< 200 ft
Symbols :   Thunderstorms  Fog  Heavy snow  Heavy precipitations  Wind > 20 kt
SIGMETs :     Misc.  Thunderstorms  Icing  Turbulence  Mountain Waves  Volcanic Ashes






- Airport Elevation : 2555 ft
- IATA code : ADJ


OJAM - Marka Int.

CURRENT METAR :
  • 131700Z 10002KT 5000 HZ NSC 20/13 Q1016 NOSIG

EXPIRED METARs :
  • 131600Z 07004KT 5000 HZ NSC 20/13 Q1016 NOSIG
  • 131520Z 09004KT 5000 HZ NSC 21/12 Q1015 NOSIG
  • 131500Z 10006KT 4000 HZ NSC 22/M02 Q1015 NOSIG

TAF TAF OJAM
Valid from the 13 at 12:00 until the 14 at 18:00 UTC


131100Z 1312/1418 10010KT 5000 HZ NSC
PROB30
TEMPO 1402/1406 4000 -RA FEW040 SCT070



MET'MAP, your aeronautical weather chart ! - Copyright ORBIFLY December 2007 - Disclaimer

ORBIFLY MET'MAP TEAM :

Programming & Development : Alexandra Zaïnal
Concept & Development : Baudouin d'Aumeries
Co-Development & Prog : Marc-Olivier Méhu
Technical & hardware support : Manuel Goepfert

Contact : metmap@orbifly.com




SOURCES & CREDITS :

   NOAA